ADDS METAR Data INFO
IDs: Format: Raw Decoded Include TAF

Data at: 0351 UTC 20 Aug 2018

METAR for:KJAQ (Jackson/Westover Fld, CA, US)
Text:KJAQ 200335Z AUTO 30004KT 10SM CLR 28/09 A2991 RMK AO1 T02820090
Temperature: 28.2°C ( 83°F)
Dewpoint: 9.0°C ( 48°F) [RH = 30%]
Pressure (altimeter):29.91 inches Hg (1013.0 mb)
Winds:from the WNW (300 degrees) at 5 MPH (4 knots; 2.1 m/s)
Visibility:10 or more sm (16+ km)
Ceiling:at least 12,000 feet AGL
Clouds:sky clear below 12,000 feet AGL
QC Flag:automated observation with no human augmentation